createdAt,value
2023-01-22T00:01:12.850Z,7.00
2023-01-22T00:03:41.610Z,6.37
2023-01-22T00:06:10.320Z,7.45
2023-01-22T00:08:38.280Z,6.57
2023-01-22T00:11:06.238Z,6.75
2023-01-22T00:13:34.977Z,7.00
2023-01-22T00:16:02.835Z,6.60
2023-01-22T00:18:30.733Z,6.75
2023-01-22T00:20:58.327Z,6.12
2023-01-22T00:23:26.393Z,7.65
2023-01-22T00:26:02.339Z,7.60
2023-01-22T00:28:31.012Z,6.93
2023-01-22T00:31:02.906Z,7.18
2023-01-22T00:33:31.105Z,6.70
2023-01-22T00:36:10.853Z,7.05
2023-01-22T00:38:38.362Z,6.30
2023-01-22T00:41:08.591Z,6.30
2023-01-22T00:43:40.589Z,6.12
2023-01-22T00:46:10.806Z,6.72
2023-01-22T00:48:39.821Z,6.57
2023-01-22T00:51:08.880Z,6.15
2023-01-22T00:53:37.669Z,6.37
2023-01-22T00:56:05.838Z,6.03
2023-01-22T00:58:33.883Z,6.78
2023-01-22T01:01:02.351Z,6.93
2023-01-22T01:03:31.597Z,6.15
2023-01-22T01:06:08.291Z,6.93
2023-01-22T01:08:39.465Z,6.30
2023-01-22T01:11:11.094Z,6.78
2023-01-22T01:13:41.992Z,6.78
2023-01-22T01:16:13.375Z,7.05
2023-01-22T01:18:41.599Z,6.07
2023-01-22T01:21:09.741Z,6.03
2023-01-22T01:23:37.554Z,6.10
2023-01-22T01:26:07.571Z,6.62
2023-01-22T01:28:36.951Z,6.12
2023-01-22T01:31:07.603Z,5.80
2023-01-22T01:33:35.260Z,6.15
2023-01-22T01:36:05.819Z,5.78
2023-01-22T01:38:34.364Z,5.57
2023-01-22T01:41:02.074Z,5.93
2023-01-22T01:43:29.863Z,5.47
2023-01-22T01:46:00.009Z,5.57
2023-01-22T01:48:36.153Z,5.60
2023-01-22T01:51:11.708Z,5.53
2023-01-22T01:53:40.318Z,5.40
2023-01-22T01:56:14.625Z,4.83
2023-01-22T01:58:42.983Z,5.45
2023-01-22T02:01:14.373Z,5.47
2023-01-22T02:03:42.437Z,5.12
2023-01-22T02:06:14.992Z,5.40
2023-01-22T02:08:48.195Z,5.77
2023-01-22T02:11:17.363Z,5.65
2023-01-22T02:13:52.988Z,5.68
2023-01-22T02:16:21.041Z,5.32
2023-01-22T02:18:49.764Z,5.47
2023-01-22T02:21:30.696Z,5.83
2023-01-22T02:24:00.001Z,5.75
2023-01-22T02:26:28.347Z,5.65
2023-01-22T02:28:57.292Z,5.87
2023-01-22T02:31:27.130Z,6.12
2023-01-22T02:33:54.845Z,5.67
2023-01-22T02:36:22.733Z,5.60
2023-01-22T02:38:50.906Z,5.68
2023-01-22T02:41:18.588Z,5.40
2023-01-22T02:43:46.155Z,5.68
2023-01-22T02:46:15.180Z,5.93
2023-01-22T02:48:42.738Z,5.87
2023-01-22T02:51:10.568Z,4.97
2023-01-22T02:53:38.585Z,6.07
2023-01-22T02:56:10.823Z,5.50
2023-01-22T02:58:38.887Z,4.90
2023-01-22T03:01:20.815Z,5.62
2023-01-22T03:03:54.785Z,5.90
2023-01-22T03:06:27.007Z,5.30
2023-01-22T03:08:59.654Z,5.50
2023-01-22T03:11:29.729Z,5.17
2023-01-22T03:14:16.257Z,5.70
2023-01-22T03:17:03.164Z,5.03
2023-01-22T03:19:49.717Z,4.87
2023-01-22T03:22:17.924Z,4.70
2023-01-22T03:24:53.103Z,5.40
2023-01-22T03:27:23.277Z,4.75
2023-01-22T03:29:51.891Z,4.55
2023-01-22T03:32:20.142Z,5.18
2023-01-22T03:34:47.824Z,4.78
2023-01-22T03:37:16.093Z,4.50
2023-01-22T03:39:44.703Z,5.00
2023-01-22T03:42:13.473Z,4.65
2023-01-22T03:44:41.391Z,4.47
2023-01-22T03:47:09.288Z,4.10
2023-01-22T03:49:36.921Z,4.83
2023-01-22T03:52:05.627Z,4.30
2023-01-22T03:54:33.128Z,4.37
2023-01-22T03:57:01.234Z,4.40
2023-01-22T03:59:29.698Z,4.45
2023-01-22T04:01:57.415Z,4.17
2023-01-22T04:04:25.392Z,3.80
2023-01-22T04:06:53.112Z,3.97
2023-01-22T04:09:20.827Z,4.12
2023-01-22T04:11:49.187Z,3.80
2023-01-22T04:14:16.837Z,4.27
2023-01-22T04:16:44.885Z,3.92
2023-01-22T04:19:16.409Z,5.30
2023-01-22T04:21:47.000Z,6.53
2023-01-22T04:24:14.632Z,6.15
2023-01-22T04:26:42.532Z,5.90
2023-01-22T04:29:11.864Z,4.80
2023-01-22T04:31:39.560Z,4.85
2023-01-22T04:34:07.638Z,4.50
2023-01-22T04:36:35.515Z,4.10
2023-01-22T04:39:03.054Z,3.87
2023-01-22T04:41:31.049Z,4.50
2023-01-22T04:43:58.617Z,4.55
2023-01-22T04:46:26.465Z,6.28
2023-01-22T04:48:54.365Z,8.13
2023-01-22T04:51:22.231Z,6.47
2023-01-22T04:53:49.876Z,6.65
2023-01-22T04:56:18.379Z,8.35
2023-01-22T04:58:46.178Z,6.82
2023-01-22T05:01:15.413Z,5.82
2023-01-22T05:03:43.398Z,5.87
2023-01-22T05:06:10.982Z,5.95
2023-01-22T05:08:39.761Z,5.60
2023-01-22T05:11:09.423Z,5.78
2023-01-22T05:13:37.717Z,6.15
2023-01-22T05:16:05.679Z,6.67
2023-01-22T05:18:33.842Z,6.32
2023-01-22T05:21:01.804Z,6.10
2023-01-22T05:23:30.066Z,5.65
2023-01-22T05:25:58.257Z,6.72
2023-01-22T05:28:26.384Z,6.43
2023-01-22T05:30:55.634Z,6.68
2023-01-22T05:33:24.319Z,7.53
2023-01-22T05:36:02.320Z,8.48
2023-01-22T05:38:30.984Z,9.00
2023-01-22T05:40:58.860Z,8.33
2023-01-22T05:43:28.490Z,8.13
2023-01-22T05:46:01.671Z,8.73
2023-01-22T05:48:32.311Z,9.38
2023-01-22T05:51:08.064Z,9.10
2023-01-22T05:53:35.877Z,8.27
2023-01-22T05:56:05.005Z,9.77
2023-01-22T05:58:34.521Z,11.57
2023-01-22T06:01:02.245Z,10.40
2023-01-22T06:03:30.898Z,8.90
2023-01-22T06:06:03.824Z,8.77
2023-01-22T06:08:34.291Z,9.02
2023-01-22T06:11:06.601Z,9.25
2023-01-22T06:13:34.800Z,8.25
2023-01-22T06:16:03.820Z,8.55
2023-01-22T06:18:33.533Z,7.20
2023-01-22T06:21:04.384Z,7.10
2023-01-22T06:23:33.014Z,6.62
2023-01-22T06:26:02.495Z,5.62
2023-01-22T06:28:30.699Z,6.03
2023-01-22T06:31:05.349Z,5.40
2023-01-22T06:33:34.764Z,6.07
2023-01-22T06:36:03.262Z,5.60
2023-01-22T06:38:31.073Z,6.87
2023-01-22T06:41:00.763Z,6.53
2023-01-22T06:43:28.841Z,7.27
2023-01-22T06:45:56.424Z,8.10
2023-01-22T06:48:24.641Z,8.82
2023-01-22T06:50:52.210Z,7.68
2023-01-22T06:53:19.899Z,8.18
2023-01-22T06:55:47.817Z,8.77
2023-01-22T06:58:15.802Z,8.48
2023-01-22T07:00:43.465Z,8.52
2023-01-22T07:03:11.581Z,8.05
2023-01-22T07:05:39.612Z,7.53
2023-01-22T07:08:07.257Z,7.90
2023-01-22T07:10:35.398Z,7.80
2023-01-22T07:13:04.341Z,8.18
2023-01-22T07:15:32.477Z,8.65
2023-01-22T07:18:00.356Z,8.13
2023-01-22T07:20:30.664Z,9.10
2023-01-22T07:23:00.231Z,8.75
2023-01-22T07:25:28.997Z,8.02
2023-01-22T07:28:00.645Z,7.03
2023-01-22T07:30:29.832Z,7.30
2023-01-22T07:33:01.912Z,8.00
2023-01-22T07:35:33.094Z,8.35
2023-01-22T07:38:00.879Z,8.05
2023-01-22T07:40:28.685Z,9.65
2023-01-22T07:42:56.619Z,8.80
2023-01-22T07:45:25.262Z,9.40
2023-01-22T07:47:59.759Z,8.48
2023-01-22T07:50:29.440Z,9.35
2023-01-22T07:52:57.617Z,9.25
2023-01-22T07:55:25.239Z,10.68
2023-01-22T07:58:00.988Z,8.40
2023-01-22T08:00:28.884Z,8.73
2023-01-22T08:02:56.668Z,8.20
2023-01-22T08:05:24.232Z,7.30
2023-01-22T08:07:51.732Z,8.95
2023-01-22T08:10:20.192Z,7.30
2023-01-22T08:12:47.985Z,7.60
2023-01-22T08:15:15.715Z,7.72
2023-01-22T08:17:43.621Z,7.18
2023-01-22T08:20:11.644Z,7.93
2023-01-22T08:22:40.267Z,8.13
2023-01-22T08:25:08.435Z,9.88
2023-01-22T08:27:36.097Z,10.23
2023-01-22T08:30:04.783Z,8.15
2023-01-22T08:32:32.959Z,9.60
2023-01-22T08:35:00.511Z,13.27
2023-01-22T08:37:28.061Z,12.48
2023-01-22T08:39:56.284Z,12.63
2023-01-22T08:42:23.949Z,13.15
2023-01-22T08:44:51.489Z,12.23
2023-01-22T08:47:19.296Z,12.60
2023-01-22T08:49:48.032Z,12.27
2023-01-22T08:52:15.535Z,13.10
2023-01-22T08:54:43.329Z,13.13
2023-01-22T08:57:10.895Z,11.52
2023-01-22T08:59:41.594Z,10.97
2023-01-22T09:02:13.182Z,10.60
2023-01-22T09:04:41.904Z,11.30
2023-01-22T09:07:10.804Z,9.25
2023-01-22T09:09:39.308Z,10.27
2023-01-22T09:12:06.907Z,10.07
2023-01-22T09:14:34.523Z,9.55
2023-01-22T09:17:02.367Z,10.40
2023-01-22T09:19:30.004Z,11.07
2023-01-22T09:21:57.597Z,11.45
2023-01-22T09:24:25.467Z,9.93
2023-01-22T09:26:53.000Z,9.18
2023-01-22T09:29:20.809Z,8.77
2023-01-22T09:31:48.858Z,19.12
2023-01-22T09:34:16.977Z,10.65
2023-01-22T09:36:45.917Z,10.07
2023-01-22T09:39:14.132Z,9.48
2023-01-22T09:41:46.781Z,10.18
2023-01-22T09:44:20.303Z,9.63
2023-01-22T09:46:57.711Z,9.60
2023-01-22T09:49:39.088Z,9.63
2023-01-22T09:52:06.704Z,10.45
2023-01-22T09:54:34.566Z,10.18
2023-01-22T09:57:04.381Z,11.40
2023-01-22T09:59:37.281Z,11.07
2023-01-22T10:02:30.012Z,10.03
2023-01-22T10:05:02.271Z,11.63
2023-01-22T10:07:42.488Z,13.27
2023-01-22T10:10:30.732Z,14.98
2023-01-22T10:13:06.356Z,14.57
2023-01-22T10:15:34.223Z,13.63
2023-01-22T10:18:08.641Z,12.77
2023-01-22T10:20:36.525Z,12.65
2023-01-22T10:23:15.471Z,13.32
2023-01-22T10:25:43.274Z,12.50
2023-01-22T10:28:11.555Z,14.80
2023-01-22T10:30:47.290Z,23.27
2023-01-22T10:33:18.356Z,23.98
2023-01-22T10:35:51.284Z,22.17
2023-01-22T10:38:22.420Z,20.60
2023-01-22T10:40:57.749Z,21.73
2023-01-22T10:43:34.251Z,22.42
2023-01-22T10:46:12.028Z,24.17
2023-01-22T10:48:39.880Z,18.77
2023-01-22T10:51:16.526Z,19.08
2023-01-22T10:53:56.003Z,17.90
2023-01-22T10:56:29.483Z,18.58
2023-01-22T10:58:58.898Z,16.80
2023-01-22T11:01:37.333Z,16.60
2023-01-22T11:04:20.625Z,17.17
2023-01-22T11:06:51.411Z,16.27
2023-01-22T11:09:45.385Z,19.10
2023-01-22T11:12:22.252Z,16.87
2023-01-22T11:15:12.319Z,18.30
2023-01-22T11:17:49.375Z,17.98
2023-01-22T11:20:18.289Z,17.10
2023-01-22T11:22:54.440Z,19.65
2023-01-22T11:25:22.274Z,19.48
2023-01-22T11:27:58.837Z,18.90
2023-01-22T11:30:51.555Z,13.48
2023-01-22T11:33:44.710Z,10.83
2023-01-22T11:36:32.804Z,9.52
2023-01-22T11:39:13.005Z,9.20
2023-01-22T11:42:05.783Z,8.95
2023-01-22T11:45:07.684Z,10.45
2023-01-22T11:47:35.491Z,10.90
2023-01-22T11:50:16.090Z,10.18
2023-01-22T11:53:21.331Z,8.88
2023-01-22T11:56:14.665Z,8.50
2023-01-22T11:59:01.044Z,10.90
2023-01-22T12:01:50.739Z,9.13
2023-01-22T12:04:29.557Z,8.60
2023-01-22T12:07:35.409Z,8.07
2023-01-22T12:10:25.161Z,8.30
2023-01-22T12:13:06.299Z,7.10
2023-01-22T12:15:44.719Z,7.53
2023-01-22T12:18:30.947Z,7.00
2023-01-22T12:21:01.409Z,7.15
2023-01-22T12:23:33.909Z,6.97
2023-01-22T12:26:10.030Z,7.40
2023-01-22T12:29:11.191Z,7.57
2023-01-22T12:31:48.165Z,7.60
2023-01-22T12:34:37.957Z,7.78
2023-01-22T12:37:06.578Z,7.25
2023-01-22T12:39:45.400Z,12.60
2023-01-22T12:42:13.231Z,11.50
2023-01-22T12:44:49.608Z,11.05
2023-01-22T12:47:38.750Z,8.73
2023-01-22T12:50:17.307Z,9.80
2023-01-22T12:52:47.539Z,10.30
2023-01-22T12:55:28.468Z,8.23
2023-01-22T12:57:56.903Z,8.30
2023-01-22T13:00:24.425Z,9.43
2023-01-22T13:02:52.220Z,9.27
2023-01-22T13:05:30.966Z,8.82
2023-01-22T13:08:27.099Z,8.80
2023-01-22T13:10:57.661Z,8.23
2023-01-22T13:13:49.779Z,8.57
2023-01-22T13:16:30.325Z,8.00
2023-01-22T13:19:00.586Z,9.50
2023-01-22T13:21:30.620Z,8.30
2023-01-22T13:24:12.685Z,10.50
2023-01-22T13:26:41.501Z,11.00
2023-01-22T13:29:20.331Z,11.27
2023-01-22T13:31:59.469Z,10.40
2023-01-22T13:34:27.933Z,10.63
2023-01-22T13:36:56.637Z,10.45
2023-01-22T13:39:28.440Z,9.95
2023-01-22T13:41:58.996Z,10.15
2023-01-22T13:44:53.038Z,10.98
2023-01-22T13:47:28.331Z,10.13
2023-01-22T13:49:56.353Z,11.07
2023-01-22T13:52:25.232Z,11.27
2023-01-22T13:55:01.810Z,10.75
2023-01-22T13:57:29.643Z,10.95
2023-01-22T14:00:01.675Z,11.53
2023-01-22T14:02:34.897Z,11.88
2023-01-22T14:05:03.259Z,10.75
2023-01-22T14:07:34.918Z,11.73
2023-01-22T14:10:20.210Z,11.88
2023-01-22T14:13:02.008Z,11.27
2023-01-22T14:15:30.094Z,11.43
2023-01-22T14:18:06.935Z,13.35
2023-01-22T14:20:34.970Z,14.82
2023-01-22T14:23:02.964Z,15.77
2023-01-22T14:25:31.819Z,16.60
2023-01-22T14:28:02.310Z,16.52
2023-01-22T14:30:30.010Z,16.80
2023-01-22T14:32:58.243Z,16.35
2023-01-22T14:35:27.590Z,13.02
2023-01-22T14:37:55.884Z,12.93
2023-01-22T14:40:26.032Z,12.95
2023-01-22T14:42:54.051Z,12.70
2023-01-22T14:45:22.068Z,12.30
2023-01-22T14:47:53.648Z,13.02
2023-01-22T14:50:22.856Z,12.73
2023-01-22T14:52:51.495Z,12.82
2023-01-22T14:55:19.780Z,11.48
2023-01-22T14:57:47.928Z,13.32
2023-01-22T15:00:19.978Z,12.80
2023-01-22T15:02:54.261Z,12.93
2023-01-22T15:05:21.869Z,12.85
2023-01-22T15:07:50.316Z,12.80
2023-01-22T15:10:19.371Z,13.05
2023-01-22T15:12:48.583Z,14.25
2023-01-22T15:15:18.777Z,14.40
2023-01-22T15:17:46.373Z,14.02
2023-01-22T15:20:14.012Z,15.02
2023-01-22T15:22:42.161Z,14.32
2023-01-22T15:25:10.063Z,13.30
2023-01-22T15:27:38.134Z,13.23
2023-01-22T15:30:07.482Z,12.25
2023-01-22T15:32:35.281Z,12.23
2023-01-22T15:35:03.178Z,11.23
2023-01-22T15:37:31.285Z,10.88
2023-01-22T15:39:59.121Z,10.43
2023-01-22T15:42:26.693Z,11.30
2023-01-22T15:44:54.572Z,10.60
2023-01-22T15:47:22.145Z,10.15
2023-01-22T15:49:51.798Z,10.65
2023-01-22T15:52:20.402Z,10.13
2023-01-22T15:54:48.163Z,9.90
2023-01-22T15:57:15.761Z,10.73
2023-01-22T15:59:43.946Z,11.10
2023-01-22T16:02:11.854Z,11.00
2023-01-22T16:04:39.942Z,11.23
2023-01-22T16:07:07.705Z,11.75
2023-01-22T16:09:35.810Z,12.37
2023-01-22T16:12:04.334Z,11.95
2023-01-22T16:14:32.207Z,11.23
2023-01-22T16:17:00.726Z,11.13
2023-01-22T16:19:28.939Z,11.55
2023-01-22T16:21:56.685Z,11.57
2023-01-22T16:24:24.529Z,11.50
2023-01-22T16:26:52.569Z,13.70
2023-01-22T16:29:20.263Z,13.97
2023-01-22T16:31:47.824Z,13.93
2023-01-22T16:34:17.943Z,13.82
2023-01-22T16:36:45.807Z,14.27
2023-01-22T16:39:18.603Z,12.70
2023-01-22T16:41:49.448Z,13.17
2023-01-22T16:44:19.298Z,13.15
2023-01-22T16:46:49.650Z,12.18
2023-01-22T16:49:20.617Z,12.77
2023-01-22T16:51:50.938Z,11.75
2023-01-22T16:54:20.806Z,17.07
2023-01-22T16:56:49.774Z,14.63
2023-01-22T16:59:17.653Z,13.07
2023-01-22T17:01:45.814Z,11.38
2023-01-22T17:04:14.242Z,12.13
2023-01-22T17:06:44.441Z,11.37
2023-01-22T17:09:18.645Z,11.48
2023-01-22T17:11:49.950Z,11.60
2023-01-22T17:14:20.210Z,11.20
2023-01-22T17:16:49.090Z,11.20
2023-01-22T17:19:18.726Z,12.03
2023-01-22T17:21:49.764Z,13.00
2023-01-22T17:24:17.948Z,11.38
2023-01-22T17:26:47.983Z,11.10
2023-01-22T17:29:16.241Z,11.55
2023-01-22T17:31:46.024Z,12.17
2023-01-22T17:34:14.378Z,11.45
2023-01-22T17:36:42.484Z,13.55
2023-01-22T17:39:15.541Z,13.27
2023-01-22T17:41:44.341Z,14.35
2023-01-22T17:44:12.981Z,12.13
2023-01-22T17:46:41.222Z,12.50
2023-01-22T17:49:11.172Z,10.75
2023-01-22T17:51:40.064Z,11.68
2023-01-22T17:54:08.014Z,11.73
2023-01-22T17:56:38.846Z,11.67
2023-01-22T17:59:07.626Z,12.00
2023-01-22T18:01:36.877Z,12.00
2023-01-22T18:04:09.089Z,12.20
2023-01-22T18:06:37.983Z,12.63
2023-01-22T18:09:07.050Z,13.77
2023-01-22T18:11:35.647Z,13.65
2023-01-22T18:14:28.226Z,14.10
2023-01-22T18:16:56.136Z,10.07
2023-01-22T18:19:24.696Z,9.95
2023-01-22T18:21:52.839Z,11.40
2023-01-22T18:24:23.128Z,11.18
2023-01-22T18:26:51.191Z,13.43
2023-01-22T18:29:18.701Z,13.45
2023-01-22T18:31:48.199Z,30.85
2023-01-22T18:34:16.152Z,29.67
2023-01-22T18:36:44.246Z,33.25
2023-01-22T18:39:17.766Z,22.95
2023-01-22T18:41:47.131Z,16.20
2023-01-22T18:44:16.258Z,14.32
2023-01-22T18:46:48.018Z,15.87
2023-01-22T18:49:18.939Z,14.20
2023-01-22T18:51:48.114Z,13.95
2023-01-22T18:54:16.754Z,15.40
2023-01-22T18:56:45.001Z,14.48
2023-01-22T18:59:13.159Z,15.57
2023-01-22T19:01:43.602Z,15.95
2023-01-22T19:04:18.997Z,16.75
2023-01-22T19:06:51.842Z,17.55
2023-01-22T19:09:20.524Z,18.73
2023-01-22T19:11:51.953Z,18.27
2023-01-22T19:14:21.238Z,18.75
2023-01-22T19:16:51.473Z,19.30
2023-01-22T19:19:20.487Z,18.58
2023-01-22T19:21:52.431Z,19.12
2023-01-22T19:24:26.879Z,19.03
2023-01-22T19:26:57.074Z,19.25
2023-01-22T19:29:25.816Z,20.15
2023-01-22T19:31:54.361Z,19.55
2023-01-22T19:34:23.843Z,19.35
2023-01-22T19:36:54.230Z,19.83
2023-01-22T19:39:22.739Z,18.25
2023-01-22T19:41:51.437Z,18.17
2023-01-22T19:44:20.432Z,20.62
2023-01-22T19:46:48.232Z,22.20
2023-01-22T19:49:16.304Z,22.53
2023-01-22T19:51:44.733Z,19.42
2023-01-22T19:54:12.709Z,19.12
2023-01-22T19:56:42.141Z,17.83
2023-01-22T19:59:16.088Z,20.90
2023-01-22T20:01:48.668Z,19.70
2023-01-22T20:04:25.529Z,22.45
2023-01-22T20:07:05.806Z,20.83
2023-01-22T20:09:35.264Z,20.37
2023-01-22T20:12:03.368Z,19.55
2023-01-22T20:14:33.509Z,18.67
2023-01-22T20:17:02.643Z,19.17
2023-01-22T20:19:31.117Z,17.23
2023-01-22T20:22:00.448Z,17.85
2023-01-22T20:24:28.885Z,17.58
2023-01-22T20:26:58.095Z,17.33
2023-01-22T20:29:26.218Z,16.60
2023-01-22T20:31:55.436Z,15.60
2023-01-22T20:34:23.225Z,15.30
2023-01-22T20:36:51.173Z,16.27
2023-01-22T20:39:19.829Z,15.80
2023-01-22T20:41:48.063Z,15.60
2023-01-22T20:44:17.141Z,16.37
2023-01-22T20:46:45.584Z,16.48
2023-01-22T20:49:13.806Z,16.12
2023-01-22T20:51:42.690Z,16.87
2023-01-22T20:54:10.887Z,14.48
2023-01-22T20:56:38.888Z,15.50
2023-01-22T20:59:10.112Z,16.25
2023-01-22T21:01:38.544Z,16.60
2023-01-22T21:04:06.354Z,15.03
2023-01-22T21:06:35.449Z,15.95
2023-01-22T21:09:04.407Z,15.40
2023-01-22T21:11:33.733Z,16.37
2023-01-22T21:14:04.165Z,16.67
2023-01-22T21:16:35.144Z,17.03
2023-01-22T21:19:09.768Z,16.62
2023-01-22T21:21:38.673Z,17.42
2023-01-22T21:24:07.110Z,17.17
2023-01-22T21:26:34.969Z,17.70
2023-01-22T21:29:07.808Z,16.13
2023-01-22T21:31:37.015Z,16.37
2023-01-22T21:34:08.659Z,15.55
2023-01-22T21:36:41.620Z,14.35
2023-01-22T21:39:14.522Z,14.52
2023-01-22T21:41:45.885Z,13.27
2023-01-22T21:44:36.145Z,15.13
2023-01-22T21:47:04.675Z,13.00
2023-01-22T21:49:33.159Z,12.75
2023-01-22T21:52:05.424Z,12.77
2023-01-22T21:54:35.425Z,13.57
2023-01-22T21:57:04.064Z,12.55
2023-01-22T21:59:32.440Z,12.70
2023-01-22T22:02:00.284Z,13.88
2023-01-22T22:04:28.174Z,13.70
2023-01-22T22:06:56.143Z,13.23
2023-01-22T22:09:26.018Z,14.20
2023-01-22T22:11:59.904Z,13.30
2023-01-22T22:14:27.695Z,13.20
2023-01-22T22:16:55.778Z,13.25
2023-01-22T22:19:24.229Z,13.20
2023-01-22T22:21:54.878Z,13.40
2023-01-22T22:24:22.853Z,13.00
2023-01-22T22:26:50.376Z,13.82
2023-01-22T22:29:17.873Z,14.23
2023-01-22T22:31:45.882Z,14.20
2023-01-22T22:34:13.540Z,14.75
2023-01-22T22:36:41.090Z,15.88
2023-01-22T22:39:10.106Z,15.00
2023-01-22T22:41:38.811Z,14.38
2023-01-22T22:44:07.052Z,15.47
2023-01-22T22:46:37.715Z,14.32
2023-01-22T22:49:06.032Z,14.20
2023-01-22T22:51:35.999Z,14.20
2023-01-22T22:54:15.045Z,13.07
2023-01-22T22:56:44.716Z,14.23
2023-01-22T22:59:12.853Z,12.50
2023-01-22T23:01:40.391Z,13.55
2023-01-22T23:04:08.405Z,13.88
2023-01-22T23:06:36.398Z,12.40
2023-01-22T23:09:13.611Z,13.47
2023-01-22T23:11:41.857Z,13.23
2023-01-22T23:14:11.387Z,13.32
2023-01-22T23:16:41.022Z,13.77
2023-01-22T23:19:24.625Z,13.18
2023-01-22T23:22:02.130Z,12.80
2023-01-22T23:24:31.822Z,13.90
2023-01-22T23:26:59.332Z,13.30
2023-01-22T23:29:27.444Z,14.38
2023-01-22T23:31:56.691Z,13.35
2023-01-22T23:34:24.491Z,12.37
2023-01-22T23:36:52.071Z,13.32
2023-01-22T23:39:21.399Z,12.30
2023-01-22T23:41:49.102Z,13.05
2023-01-22T23:44:16.703Z,14.00
2023-01-22T23:46:44.874Z,12.90
2023-01-22T23:49:12.703Z,14.10
2023-01-22T23:51:42.251Z,14.63
2023-01-22T23:54:10.097Z,13.85
2023-01-22T23:56:37.855Z,14.20
2023-01-22T23:59:05.903Z,12.80
